sensor_id;sensor_type;location;lat;lon;timestamp;temperature;humidity
3418;DHT22;68007;51.312;12.372;2023-02-28T00:01:41;3.00;89.40
3418;DHT22;68007;51.312;12.372;2023-02-28T00:04:08;3.00;89.40
3418;DHT22;68007;51.312;12.372;2023-02-28T00:06:36;3.00;89.90
3418;DHT22;68007;51.312;12.372;2023-02-28T00:09:05;3.00;89.60
3418;DHT22;68007;51.312;12.372;2023-02-28T00:11:32;3.00;89.70
3418;DHT22;68007;51.312;12.372;2023-02-28T00:14:00;3.00;89.50
3418;DHT22;68007;51.312;12.372;2023-02-28T00:16:27;3.00;89.50
3418;DHT22;68007;51.312;12.372;2023-02-28T00:18:55;3.00;89.50
3418;DHT22;68007;51.312;12.372;2023-02-28T00:21:22;2.90;89.50
3418;DHT22;68007;51.312;12.372;2023-02-28T00:23:50;3.00;89.90
3418;DHT22;68007;51.312;12.372;2023-02-28T00:26:19;3.00;90.10
3418;DHT22;68007;51.312;12.372;2023-02-28T00:28:46;3.00;89.50
3418;DHT22;68007;51.312;12.372;2023-02-28T00:31:14;3.00;89.50
3418;DHT22;68007;51.312;12.372;2023-02-28T00:33:42;3.00;89.80
3418;DHT22;68007;51.312;12.372;2023-02-28T00:36:10;3.00;89.50
3418;DHT22;68007;51.312;12.372;2023-02-28T00:38:39;3.00;89.70
3418;DHT22;68007;51.312;12.372;2023-02-28T00:41:08;2.90;89.60
3418;DHT22;68007;51.312;12.372;2023-02-28T00:43:38;2.90;89.70
3418;DHT22;68007;51.312;12.372;2023-02-28T00:46:06;2.90;89.90
3418;DHT22;68007;51.312;12.372;2023-02-28T00:48:34;2.90;90.00
3418;DHT22;68007;51.312;12.372;2023-02-28T00:51:02;2.90;90.00
3418;DHT22;68007;51.312;12.372;2023-02-28T00:53:30;2.90;90.00
3418;DHT22;68007;51.312;12.372;2023-02-28T00:55:58;2.90;90.00
3418;DHT22;68007;51.312;12.372;2023-02-28T00:58:26;2.90;90.40
3418;DHT22;68007;51.312;12.372;2023-02-28T01:00:55;2.90;90.00
3418;DHT22;68007;51.312;12.372;2023-02-28T01:03:23;2.90;90.00
3418;DHT22;68007;51.312;12.372;2023-02-28T01:05:50;2.90;90.00
3418;DHT22;68007;51.312;12.372;2023-02-28T01:08:19;2.90;90.20
3418;DHT22;68007;51.312;12.372;2023-02-28T01:10:46;2.90;90.10
3418;DHT22;68007;51.312;12.372;2023-02-28T01:13:14;2.90;90.10
3418;DHT22;68007;51.312;12.372;2023-02-28T01:15:46;2.90;90.20
3418;DHT22;68007;51.312;12.372;2023-02-28T01:18:17;2.90;90.20
3418;DHT22;68007;51.312;12.372;2023-02-28T01:20:45;2.90;90.20
3418;DHT22;68007;51.312;12.372;2023-02-28T01:23:13;2.90;90.20
3418;DHT22;68007;51.312;12.372;2023-02-28T01:25:40;2.90;90.20
3418;DHT22;68007;51.312;12.372;2023-02-28T01:28:08;2.90;90.10
3418;DHT22;68007;51.312;12.372;2023-02-28T01:30:35;2.90;90.20
3418;DHT22;68007;51.312;12.372;2023-02-28T01:33:03;2.90;90.30
3418;DHT22;68007;51.312;12.372;2023-02-28T01:35:34;2.90;90.30
3418;DHT22;68007;51.312;12.372;2023-02-28T01:38:02;2.90;90.30
3418;DHT22;68007;51.312;12.372;2023-02-28T01:40:29;2.80;90.50
3418;DHT22;68007;51.312;12.372;2023-02-28T01:42:57;2.80;90.40
3418;DHT22;68007;51.312;12.372;2023-02-28T01:45:27;2.80;90.40
3418;DHT22;68007;51.312;12.372;2023-02-28T01:47:58;2.80;90.30
3418;DHT22;68007;51.312;12.372;2023-02-28T01:50:30;2.80;90.60
3418;DHT22;68007;51.312;12.372;2023-02-28T01:53:02;2.80;90.60
3418;DHT22;68007;51.312;12.372;2023-02-28T01:55:32;2.80;90.60
3418;DHT22;68007;51.312;12.372;2023-02-28T01:58:02;2.80;90.50
3418;DHT22;68007;51.312;12.372;2023-02-28T02:00:30;2.80;90.60
3418;DHT22;68007;51.312;12.372;2023-02-28T02:03:00;2.80;90.60
3418;DHT22;68007;51.312;12.372;2023-02-28T02:05:30;2.80;90.70
3418;DHT22;68007;51.312;12.372;2023-02-28T02:08:03;2.80;90.70
3418;DHT22;68007;51.312;12.372;2023-02-28T02:10:34;2.80;90.70
3418;DHT22;68007;51.312;12.372;2023-02-28T02:13:24;2.80;90.70
3418;DHT22;68007;51.312;12.372;2023-02-28T02:15:59;2.80;90.60
3418;DHT22;68007;51.312;12.372;2023-02-28T02:18:32;2.80;90.70
3418;DHT22;68007;51.312;12.372;2023-02-28T02:21:33;2.80;90.70
3418;DHT22;68007;51.312;12.372;2023-02-28T02:24:36;2.80;90.40
3418;DHT22;68007;51.312;12.372;2023-02-28T02:27:38;2.80;90.90
3418;DHT22;68007;51.312;12.372;2023-02-28T02:30:44;2.70;90.80
3418;DHT22;68007;51.312;12.372;2023-02-28T02:36:19;2.70;90.80
3418;DHT22;68007;51.312;12.372;2023-02-28T02:38:52;2.70;90.80
3418;DHT22;68007;51.312;12.372;2023-02-28T02:41:26;2.70;90.80
3418;DHT22;68007;51.312;12.372;2023-02-28T02:44:01;2.70;90.80
3418;DHT22;68007;51.312;12.372;2023-02-28T02:46:33;2.70;90.90
3418;DHT22;68007;51.312;12.372;2023-02-28T02:49:05;2.70;90.90
3418;DHT22;68007;51.312;12.372;2023-02-28T02:51:35;2.70;90.80
3418;DHT22;68007;51.312;12.372;2023-02-28T02:54:07;2.70;90.90
3418;DHT22;68007;51.312;12.372;2023-02-28T02:56:36;2.70;90.80
3418;DHT22;68007;51.312;12.372;2023-02-28T02:59:09;2.70;90.90
3418;DHT22;68007;51.312;12.372;2023-02-28T03:01:38;2.70;90.90
3418;DHT22;68007;51.312;12.372;2023-02-28T03:04:11;2.70;90.90
3418;DHT22;68007;51.312;12.372;2023-02-28T03:06:41;2.70;90.90
3418;DHT22;68007;51.312;12.372;2023-02-28T03:09:09;2.60;91.20
3418;DHT22;68007;51.312;12.372;2023-02-28T03:11:37;2.60;91.00
3418;DHT22;68007;51.312;12.372;2023-02-28T03:14:20;2.60;91.00
3418;DHT22;68007;51.312;12.372;2023-02-28T03:20:07;2.60;91.10
3418;DHT22;68007;51.312;12.372;2023-02-28T03:22:47;2.60;91.10
3418;DHT22;68007;51.312;12.372;2023-02-28T03:25:27;2.60;91.10
3418;DHT22;68007;51.312;12.372;2023-02-28T03:28:00;2.60;91.10
3418;DHT22;68007;51.312;12.372;2023-02-28T03:30:36;2.60;91.10
3418;DHT22;68007;51.312;12.372;2023-02-28T03:33:08;2.60;91.10
3418;DHT22;68007;51.312;12.372;2023-02-28T03:35:40;2.60;91.10
3418;DHT22;68007;51.312;12.372;2023-02-28T03:38:14;2.60;91.10
3418;DHT22;68007;51.312;12.372;2023-02-28T03:40:46;2.60;91.10
3418;DHT22;68007;51.312;12.372;2023-02-28T03:43:19;2.60;91.20
3418;DHT22;68007;51.312;12.372;2023-02-28T03:45:50;2.60;91.10
3418;DHT22;68007;51.312;12.372;2023-02-28T03:48:23;2.60;91.20
3418;DHT22;68007;51.312;12.372;2023-02-28T03:50:55;2.60;91.20
3418;DHT22;68007;51.312;12.372;2023-02-28T03:53:30;2.60;91.20
3418;DHT22;68007;51.312;12.372;2023-02-28T03:56:01;2.50;91.30
3418;DHT22;68007;51.312;12.372;2023-02-28T03:58:37;2.50;91.30
3418;DHT22;68007;51.312;12.372;2023-02-28T04:01:08;2.50;91.30
3418;DHT22;68007;51.312;12.372;2023-02-28T04:03:37;2.50;91.30
3418;DHT22;68007;51.312;12.372;2023-02-28T04:06:08;2.50;91.20
3418;DHT22;68007;51.312;12.372;2023-02-28T04:08:41;2.50;91.30
3418;DHT22;68007;51.312;12.372;2023-02-28T04:11:16;2.50;91.30
3418;DHT22;68007;51.312;12.372;2023-02-28T04:13:45;2.50;91.40
3418;DHT22;68007;51.312;12.372;2023-02-28T04:16:13;2.50;91.40
3418;DHT22;68007;51.312;12.372;2023-02-28T04:18:41;2.50;91.30
3418;DHT22;68007;51.312;12.372;2023-02-28T04:21:10;2.50;91.30
3418;DHT22;68007;51.312;12.372;2023-02-28T04:23:38;2.50;91.20
3418;DHT22;68007;51.312;12.372;2023-02-28T04:26:07;2.50;91.30
3418;DHT22;68007;51.312;12.372;2023-02-28T04:28:34;2.50;91.30
3418;DHT22;68007;51.312;12.372;2023-02-28T04:31:04;2.50;91.30
3418;DHT22;68007;51.312;12.372;2023-02-28T04:33:33;2.50;91.30
3418;DHT22;68007;51.312;12.372;2023-02-28T04:36:01;2.50;91.20
3418;DHT22;68007;51.312;12.372;2023-02-28T04:38:30;2.50;91.20
3418;DHT22;68007;51.312;12.372;2023-02-28T04:40:59;2.50;91.20
3418;DHT22;68007;51.312;12.372;2023-02-28T04:43:29;2.40;91.10
3418;DHT22;68007;51.312;12.372;2023-02-28T04:46:00;2.40;91.20
3418;DHT22;68007;51.312;12.372;2023-02-28T04:48:29;2.40;91.10
3418;DHT22;68007;51.312;12.372;2023-02-28T04:51:00;2.50;91.20
3418;DHT22;68007;51.312;12.372;2023-02-28T04:53:27;2.40;91.10
3418;DHT22;68007;51.312;12.372;2023-02-28T04:55:55;2.40;91.00
3418;DHT22;68007;51.312;12.372;2023-02-28T04:58:22;2.50;91.00
3418;DHT22;68007;51.312;12.372;2023-02-28T05:00:52;2.40;90.90
3418;DHT22;68007;51.312;12.372;2023-02-28T05:03:20;2.40;90.80
3418;DHT22;68007;51.312;12.372;2023-02-28T05:05:48;2.40;90.90
3418;DHT22;68007;51.312;12.372;2023-02-28T05:08:16;2.40;90.80
3418;DHT22;68007;51.312;12.372;2023-02-28T05:10:43;2.40;90.70
3418;DHT22;68007;51.312;12.372;2023-02-28T05:13:12;2.40;90.80
3418;DHT22;68007;51.312;12.372;2023-02-28T05:15:39;2.40;90.60
3418;DHT22;68007;51.312;12.372;2023-02-28T05:18:09;2.40;90.60
3418;DHT22;68007;51.312;12.372;2023-02-28T05:20:37;2.40;90.50
3418;DHT22;68007;51.312;12.372;2023-02-28T05:23:04;2.40;90.40
3418;DHT22;68007;51.312;12.372;2023-02-28T05:25:32;2.40;90.50
3418;DHT22;68007;51.312;12.372;2023-02-28T05:27:59;2.40;90.50
3418;DHT22;68007;51.312;12.372;2023-02-28T05:30:27;2.40;90.50
3418;DHT22;68007;51.312;12.372;2023-02-28T05:32:54;2.40;90.50
3418;DHT22;68007;51.312;12.372;2023-02-28T05:35:23;2.40;90.80
3418;DHT22;68007;51.312;12.372;2023-02-28T05:37:51;2.40;90.50
3418;DHT22;68007;51.312;12.372;2023-02-28T05:40:19;2.40;90.40
3418;DHT22;68007;51.312;12.372;2023-02-28T05:42:46;2.40;90.50
3418;DHT22;68007;51.312;12.372;2023-02-28T05:45:14;2.40;90.40
3418;DHT22;68007;51.312;12.372;2023-02-28T05:47:43;2.40;90.30
3418;DHT22;68007;51.312;12.372;2023-02-28T05:50:11;2.40;90.20
3418;DHT22;68007;51.312;12.372;2023-02-28T05:52:40;2.40;90.30
3418;DHT22;68007;51.312;12.372;2023-02-28T05:55:08;2.40;90.20
3418;DHT22;68007;51.312;12.372;2023-02-28T05:57:36;2.30;90.20
3418;DHT22;68007;51.312;12.372;2023-02-28T06:00:04;2.30;90.20
3418;DHT22;68007;51.312;12.372;2023-02-28T06:02:32;2.30;90.20
3418;DHT22;68007;51.312;12.372;2023-02-28T06:04:59;2.30;90.10
3418;DHT22;68007;51.312;12.372;2023-02-28T06:07:26;2.30;90.10
3418;DHT22;68007;51.312;12.372;2023-02-28T06:09:55;2.30;90.00
3418;DHT22;68007;51.312;12.372;2023-02-28T06:12:23;2.30;90.10
3418;DHT22;68007;51.312;12.372;2023-02-28T06:14:50;2.40;90.00
3418;DHT22;68007;51.312;12.372;2023-02-28T06:17:18;2.30;90.10
3418;DHT22;68007;51.312;12.372;2023-02-28T06:19:45;2.30;90.10
3418;DHT22;68007;51.312;12.372;2023-02-28T06:22:14;2.30;90.20
3418;DHT22;68007;51.312;12.372;2023-02-28T06:24:41;2.30;90.30
3418;DHT22;68007;51.312;12.372;2023-02-28T06:27:10;2.30;90.20
3418;DHT22;68007;51.312;12.372;2023-02-28T06:29:38;2.30;90.20
3418;DHT22;68007;51.312;12.372;2023-02-28T06:32:06;2.30;90.10
3418;DHT22;68007;51.312;12.372;2023-02-28T06:34:33;2.30;90.10
3418;DHT22;68007;51.312;12.372;2023-02-28T06:37:01;2.20;90.10
3418;DHT22;68007;51.312;12.372;2023-02-28T06:39:28;2.20;90.20
3418;DHT22;68007;51.312;12.372;2023-02-28T06:41:56;2.20;90.20
3418;DHT22;68007;51.312;12.372;2023-02-28T06:44:25;2.20;90.20
3418;DHT22;68007;51.312;12.372;2023-02-28T06:46:52;2.20;90.20
3418;DHT22;68007;51.312;12.372;2023-02-28T06:49:20;2.20;90.20
3418;DHT22;68007;51.312;12.372;2023-02-28T06:51:47;2.20;90.10
3418;DHT22;68007;51.312;12.372;2023-02-28T06:54:16;2.20;90.10
3418;DHT22;68007;51.312;12.372;2023-02-28T06:56:43;2.20;90.20
3418;DHT22;68007;51.312;12.372;2023-02-28T06:59:11;2.20;90.10
3418;DHT22;68007;51.312;12.372;2023-02-28T07:01:39;2.20;90.10
3418;DHT22;68007;51.312;12.372;2023-02-28T07:04:07;2.10;89.90
3418;DHT22;68007;51.312;12.372;2023-02-28T07:06:35;2.10;90.00
3418;DHT22;68007;51.312;12.372;2023-02-28T07:09:02;2.20;90.20
3418;DHT22;68007;51.312;12.372;2023-02-28T07:11:31;2.10;90.20
3418;DHT22;68007;51.312;12.372;2023-02-28T07:13:58;2.20;90.10
3418;DHT22;68007;51.312;12.372;2023-02-28T07:16:26;2.20;90.20
3418;DHT22;68007;51.312;12.372;2023-02-28T07:18:55;2.20;90.10
3418;DHT22;68007;51.312;12.372;2023-02-28T07:21:22;2.20;90.20
3418;DHT22;68007;51.312;12.372;2023-02-28T07:23:50;2.20;90.20
3418;DHT22;68007;51.312;12.372;2023-02-28T07:26:19;2.20;90.10
3418;DHT22;68007;51.312;12.372;2023-02-28T07:28:48;2.20;90.20
3418;DHT22;68007;51.312;12.372;2023-02-28T07:31:16;2.20;90.00
3418;DHT22;68007;51.312;12.372;2023-02-28T07:33:44;2.20;90.20
3418;DHT22;68007;51.312;12.372;2023-02-28T07:36:15;2.20;88.60
3418;DHT22;68007;51.312;12.372;2023-02-28T07:38:44;2.20;89.80
3418;DHT22;68007;51.312;12.372;2023-02-28T07:41:14;2.30;89.90
3418;DHT22;68007;51.312;12.372;2023-02-28T07:43:42;2.20;89.60
3418;DHT22;68007;51.312;12.372;2023-02-28T07:46:12;2.30;89.70
3418;DHT22;68007;51.312;12.372;2023-02-28T07:48:41;2.30;89.50
3418;DHT22;68007;51.312;12.372;2023-02-28T07:51:09;2.30;89.50
3418;DHT22;68007;51.312;12.372;2023-02-28T07:53:38;2.30;89.30
3418;DHT22;68007;51.312;12.372;2023-02-28T07:56:06;2.30;89.20
3418;DHT22;68007;51.312;12.372;2023-02-28T07:58:34;2.30;89.40
3418;DHT22;68007;51.312;12.372;2023-02-28T08:01:06;2.30;89.00
3418;DHT22;68007;51.312;12.372;2023-02-28T08:03:34;2.40;89.20
3418;DHT22;68007;51.312;12.372;2023-02-28T08:06:02;2.40;88.90
3418;DHT22;68007;51.312;12.372;2023-02-28T08:08:30;2.40;88.20
3418;DHT22;68007;51.312;12.372;2023-02-28T08:11:00;2.40;88.70
3418;DHT22;68007;51.312;12.372;2023-02-28T08:13:28;2.40;86.60
3418;DHT22;68007;51.312;12.372;2023-02-28T08:15:56;2.40;87.90
3418;DHT22;68007;51.312;12.372;2023-02-28T08:18:24;2.50;88.40
3418;DHT22;68007;51.312;12.372;2023-02-28T08:20:51;2.50;87.00
3418;DHT22;68007;51.312;12.372;2023-02-28T08:23:19;2.50;87.30
3418;DHT22;68007;51.312;12.372;2023-02-28T08:25:53;2.50;87.40
3418;DHT22;68007;51.312;12.372;2023-02-28T08:28:22;2.50;87.10
3418;DHT22;68007;51.312;12.372;2023-02-28T08:30:49;2.50;86.50
3418;DHT22;68007;51.312;12.372;2023-02-28T08:33:17;2.50;85.80
3418;DHT22;68007;51.312;12.372;2023-02-28T08:35:44;2.50;83.70
3418;DHT22;68007;51.312;12.372;2023-02-28T08:38:13;2.60;84.40
3418;DHT22;68007;51.312;12.372;2023-02-28T08:40:40;2.60;86.00
3418;DHT22;68007;51.312;12.372;2023-02-28T08:43:08;2.60;85.60
3418;DHT22;68007;51.312;12.372;2023-02-28T08:45:37;2.70;85.20
3418;DHT22;68007;51.312;12.372;2023-02-28T08:48:05;2.70;84.90
3418;DHT22;68007;51.312;12.372;2023-02-28T08:50:32;2.70;84.60
3418;DHT22;68007;51.312;12.372;2023-02-28T08:53:00;2.70;85.50
3418;DHT22;68007;51.312;12.372;2023-02-28T08:55:27;2.70;80.20
3418;DHT22;68007;51.312;12.372;2023-02-28T08:57:55;2.70;82.50
3418;DHT22;68007;51.312;12.372;2023-02-28T09:00:23;2.80;77.60
3418;DHT22;68007;51.312;12.372;2023-02-28T09:02:52;2.80;82.80
3418;DHT22;68007;51.312;12.372;2023-02-28T09:05:20;2.90;79.90
3418;DHT22;68007;51.312;12.372;2023-02-28T09:07:49;2.80;79.50
3418;DHT22;68007;51.312;12.372;2023-02-28T09:10:17;2.90;81.20
3418;DHT22;68007;51.312;12.372;2023-02-28T09:12:44;2.90;77.90
3418;DHT22;68007;51.312;12.372;2023-02-28T09:15:13;3.00;76.40
3418;DHT22;68007;51.312;12.372;2023-02-28T09:17:40;3.00;74.20
3418;DHT22;68007;51.312;12.372;2023-02-28T09:20:11;2.90;72.60
3418;DHT22;68007;51.312;12.372;2023-02-28T09:22:38;3.00;75.80
3418;DHT22;68007;51.312;12.372;2023-02-28T09:25:06;3.00;74.30
3418;DHT22;68007;51.312;12.372;2023-02-28T09:27:34;3.00;75.60
3418;DHT22;68007;51.312;12.372;2023-02-28T09:30:03;3.00;74.10
3418;DHT22;68007;51.312;12.372;2023-02-28T09:32:31;3.00;75.30
3418;DHT22;68007;51.312;12.372;2023-02-28T09:34:59;3.10;73.40
3418;DHT22;68007;51.312;12.372;2023-02-28T09:37:27;3.20;73.70
3418;DHT22;68007;51.312;12.372;2023-02-28T09:39:57;3.20;74.00
3418;DHT22;68007;51.312;12.372;2023-02-28T09:42:29;3.30;71.10
3418;DHT22;68007;51.312;12.372;2023-02-28T09:44:59;3.30;71.20
3418;DHT22;68007;51.312;12.372;2023-02-28T09:47:29;3.30;71.10
3418;DHT22;68007;51.312;12.372;2023-02-28T09:50:06;3.40;70.30
3418;DHT22;68007;51.312;12.372;2023-02-28T09:52:36;3.40;75.40
3418;DHT22;68007;51.312;12.372;2023-02-28T09:55:19;3.40;71.00
3418;DHT22;68007;51.312;12.372;2023-02-28T09:57:58;3.50;71.70
3418;DHT22;68007;51.312;12.372;2023-02-28T10:00:30;3.50;68.60
3418;DHT22;68007;51.312;12.372;2023-02-28T10:03:25;3.50;66.80
3418;DHT22;68007;51.312;12.372;2023-02-28T10:05:58;3.60;66.20
3418;DHT22;68007;51.312;12.372;2023-02-28T10:08:36;3.70;65.40
3418;DHT22;68007;51.312;12.372;2023-02-28T10:11:11;3.70;63.30
3418;DHT22;68007;51.312;12.372;2023-02-28T10:13:48;3.70;64.10
3418;DHT22;68007;51.312;12.372;2023-02-28T10:16:22;3.80;68.30
3418;DHT22;68007;51.312;12.372;2023-02-28T10:19:01;3.80;63.70
3418;DHT22;68007;51.312;12.372;2023-02-28T10:21:34;3.80;65.50
3418;DHT22;68007;51.312;12.372;2023-02-28T10:24:11;3.80;64.70
3418;DHT22;68007;51.312;12.372;2023-02-28T10:26:42;3.90;70.10
3418;DHT22;68007;51.312;12.372;2023-02-28T10:29:11;3.90;65.50
3418;DHT22;68007;51.312;12.372;2023-02-28T10:31:39;4.00;65.50
3418;DHT22;68007;51.312;12.372;2023-02-28T10:34:07;4.10;62.40
3418;DHT22;68007;51.312;12.372;2023-02-28T10:36:39;4.10;68.40
3418;DHT22;68007;51.312;12.372;2023-02-28T10:39:35;4.10;66.30
3418;DHT22;68007;51.312;12.372;2023-02-28T10:42:04;4.20;65.20
3418;DHT22;68007;51.312;12.372;2023-02-28T10:44:31;4.20;65.70
3418;DHT22;68007;51.312;12.372;2023-02-28T10:46:59;4.20;69.20
3418;DHT22;68007;51.312;12.372;2023-02-28T10:49:29;4.30;68.80
3418;DHT22;68007;51.312;12.372;2023-02-28T10:51:58;4.30;67.90
3418;DHT22;68007;51.312;12.372;2023-02-28T10:54:29;4.40;65.60
3418;DHT22;68007;51.312;12.372;2023-02-28T10:57:17;4.50;67.90
3418;DHT22;68007;51.312;12.372;2023-02-28T10:59:50;4.50;68.80
3418;DHT22;68007;51.312;12.372;2023-02-28T11:02:32;4.50;69.90
3418;DHT22;68007;51.312;12.372;2023-02-28T11:05:00;4.60;71.60
3418;DHT22;68007;51.312;12.372;2023-02-28T11:07:28;4.60;71.60
3418;DHT22;68007;51.312;12.372;2023-02-28T11:09:57;4.60;69.80
3418;DHT22;68007;51.312;12.372;2023-02-28T11:12:29;4.70;71.40
3418;DHT22;68007;51.312;12.372;2023-02-28T11:15:02;4.70;70.90
3418;DHT22;68007;51.312;12.372;2023-02-28T11:17:31;4.80;69.80
3418;DHT22;68007;51.312;12.372;2023-02-28T11:20:02;4.90;69.40
3418;DHT22;68007;51.312;12.372;2023-02-28T11:22:32;5.00;70.40
3418;DHT22;68007;51.312;12.372;2023-02-28T11:25:07;5.10;69.00
3418;DHT22;68007;51.312;12.372;2023-02-28T11:27:58;5.10;69.10
3418;DHT22;68007;51.312;12.372;2023-02-28T11:30:33;5.30;66.70
3418;DHT22;68007;51.312;12.372;2023-02-28T11:33:14;5.40;68.40
3418;DHT22;68007;51.312;12.372;2023-02-28T11:35:45;5.60;64.60
3418;DHT22;68007;51.312;12.372;2023-02-28T11:38:15;5.70;65.60
3418;DHT22;68007;51.312;12.372;2023-02-28T11:40:47;5.80;63.70
3418;DHT22;68007;51.312;12.372;2023-02-28T11:43:27;6.00;64.70
3418;DHT22;68007;51.312;12.372;2023-02-28T11:46:14;6.10;67.00
3418;DHT22;68007;51.312;12.372;2023-02-28T11:48:54;6.30;67.90
3418;DHT22;68007;51.312;12.372;2023-02-28T11:51:30;6.40;67.80
3418;DHT22;68007;51.312;12.372;2023-02-28T11:54:21;6.50;67.80
3418;DHT22;68007;51.312;12.372;2023-02-28T11:56:54;6.70;65.40
3418;DHT22;68007;51.312;12.372;2023-02-28T11:59:38;6.90;66.30
3418;DHT22;68007;51.312;12.372;2023-02-28T12:02:23;7.10;66.60
3418;DHT22;68007;51.312;12.372;2023-02-28T12:05:15;7.30;67.90
3418;DHT22;68007;51.312;12.372;2023-02-28T12:07:55;7.60;67.50
3418;DHT22;68007;51.312;12.372;2023-02-28T12:10:26;7.80;66.90
3418;DHT22;68007;51.312;12.372;2023-02-28T12:13:11;8.20;61.80
3418;DHT22;68007;51.312;12.372;2023-02-28T12:16:00;8.40;66.40
3418;DHT22;68007;51.312;12.372;2023-02-28T12:18:53;8.70;58.70
3418;DHT22;68007;51.312;12.372;2023-02-28T12:21:33;9.00;64.30
3418;DHT22;68007;51.312;12.372;2023-02-28T12:24:17;9.30;59.60
3418;DHT22;68007;51.312;12.372;2023-02-28T12:26:50;9.40;64.10
3418;DHT22;68007;51.312;12.372;2023-02-28T12:29:22;9.60;54.60
3418;DHT22;68007;51.312;12.372;2023-02-28T12:31:56;9.80;63.20
3418;DHT22;68007;51.312;12.372;2023-02-28T12:34:31;9.90;64.10
3418;DHT22;68007;51.312;12.372;2023-02-28T12:37:06;10.00;63.60
3418;DHT22;68007;51.312;12.372;2023-02-28T12:39:37;10.10;62.70
3418;DHT22;68007;51.312;12.372;2023-02-28T12:42:10;10.10;62.60
3418;DHT22;68007;51.312;12.372;2023-02-28T12:44:44;10.20;63.80
3418;DHT22;68007;51.312;12.372;2023-02-28T12:47:16;10.30;64.20
3418;DHT22;68007;51.312;12.372;2023-02-28T12:49:46;10.40;62.50
3418;DHT22;68007;51.312;12.372;2023-02-28T12:52:20;10.50;62.90
3418;DHT22;68007;51.312;12.372;2023-02-28T12:54:52;10.60;63.70
3418;DHT22;68007;51.312;12.372;2023-02-28T12:57:31;10.60;62.90
3418;DHT22;68007;51.312;12.372;2023-02-28T13:00:04;10.70;62.20
3418;DHT22;68007;51.312;12.372;2023-02-28T13:02:53;10.80;62.20
3418;DHT22;68007;51.312;12.372;2023-02-28T13:06:03;10.90;59.30
3418;DHT22;68007;51.312;12.372;2023-02-28T13:08:50;11.00;62.10
3418;DHT22;68007;51.312;12.372;2023-02-28T13:11:25;11.00;62.60
3418;DHT22;68007;51.312;12.372;2023-02-28T13:13:58;11.00;62.70
3418;DHT22;68007;51.312;12.372;2023-02-28T13:16:26;11.00;61.70
3418;DHT22;68007;51.312;12.372;2023-02-28T13:19:10;11.00;63.50
3418;DHT22;68007;51.312;12.372;2023-02-28T13:21:43;11.10;62.20
3418;DHT22;68007;51.312;12.372;2023-02-28T13:24:11;11.10;61.50
3418;DHT22;68007;51.312;12.372;2023-02-28T13:27:36;11.10;62.20
3418;DHT22;68007;51.312;12.372;2023-02-28T13:33:25;11.00;62.00
3418;DHT22;68007;51.312;12.372;2023-02-28T13:36:24;11.00;61.90
3418;DHT22;68007;51.312;12.372;2023-02-28T13:38:53;11.10;61.20
3418;DHT22;68007;51.312;12.372;2023-02-28T13:41:48;11.00;61.60
3418;DHT22;68007;51.312;12.372;2023-02-28T13:44:18;11.00;61.90
3418;DHT22;68007;51.312;12.372;2023-02-28T13:47:23;11.00;61.00
3418;DHT22;68007;51.312;12.372;2023-02-28T13:50:15;11.00;62.20
3418;DHT22;68007;51.312;12.372;2023-02-28T13:52:48;11.00;61.20
3418;DHT22;68007;51.312;12.372;2023-02-28T13:55:27;10.80;61.20
3418;DHT22;68007;51.312;12.372;2023-02-28T13:58:15;10.80;60.70
3418;DHT22;68007;51.312;12.372;2023-02-28T14:01:09;10.80;62.50
3418;DHT22;68007;51.312;12.372;2023-02-28T14:03:52;10.90;60.00
3418;DHT22;68007;51.312;12.372;2023-02-28T14:06:26;11.00;62.20
3418;DHT22;68007;51.312;12.372;2023-02-28T14:09:00;11.00;57.90
3418;DHT22;68007;51.312;12.372;2023-02-28T14:11:33;11.00;59.30
3418;DHT22;68007;51.312;12.372;2023-02-28T14:14:03;10.90;59.50
3418;DHT22;68007;51.312;12.372;2023-02-28T14:16:38;10.70;59.80
3418;DHT22;68007;51.312;12.372;2023-02-28T14:19:12;10.70;58.70
3418;DHT22;68007;51.312;12.372;2023-02-28T14:21:50;10.60;60.00
3418;DHT22;68007;51.312;12.372;2023-02-28T14:27:26;10.70;59.70
3418;DHT22;68007;51.312;12.372;2023-02-28T14:30:24;10.70;58.80
3418;DHT22;68007;51.312;12.372;2023-02-28T14:33:10;10.60;60.10
3418;DHT22;68007;51.312;12.372;2023-02-28T14:35:53;10.70;54.70
3418;DHT22;68007;51.312;12.372;2023-02-28T14:38:25;10.70;56.50
3418;DHT22;68007;51.312;12.372;2023-02-28T14:40:58;10.70;54.90
3418;DHT22;68007;51.312;12.372;2023-02-28T14:43:28;10.70;58.00
3418;DHT22;68007;51.312;12.372;2023-02-28T14:45:58;10.70;52.60
3418;DHT22;68007;51.312;12.372;2023-02-28T14:48:26;10.70;57.90
3418;DHT22;68007;51.312;12.372;2023-02-28T14:50:56;10.50;56.60
3418;DHT22;68007;51.312;12.372;2023-02-28T14:53:27;10.50;57.70
3418;DHT22;68007;51.312;12.372;2023-02-28T14:55:56;10.40;58.70
3418;DHT22;68007;51.312;12.372;2023-02-28T14:58:26;10.40;59.30
3418;DHT22;68007;51.312;12.372;2023-02-28T15:00:55;10.40;59.70
3418;DHT22;68007;51.312;12.372;2023-02-28T15:03:29;10.30;59.70
3418;DHT22;68007;51.312;12.372;2023-02-28T15:05:59;10.20;59.40
3418;DHT22;68007;51.312;12.372;2023-02-28T15:08:26;10.20;55.20
3418;DHT22;68007;51.312;12.372;2023-02-28T15:10:59;10.20;56.80
3418;DHT22;68007;51.312;12.372;2023-02-28T15:13:35;10.20;59.00
3418;DHT22;68007;51.312;12.372;2023-02-28T15:16:04;10.20;58.10
3418;DHT22;68007;51.312;12.372;2023-02-28T15:18:42;10.10;58.50
3418;DHT22;68007;51.312;12.372;2023-02-28T15:21:13;10.10;59.40
3418;DHT22;68007;51.312;12.372;2023-02-28T15:23:43;10.10;58.50
3418;DHT22;68007;51.312;12.372;2023-02-28T15:26:15;10.10;59.90
3418;DHT22;68007;51.312;12.372;2023-02-28T15:28:44;10.10;59.70
3418;DHT22;68007;51.312;12.372;2023-02-28T15:31:21;10.10;59.80
3418;DHT22;68007;51.312;12.372;2023-02-28T15:33:55;10.00;58.40
3418;DHT22;68007;51.312;12.372;2023-02-28T15:36:25;10.00;59.30
3418;DHT22;68007;51.312;12.372;2023-02-28T15:38:54;9.90;59.10
3418;DHT22;68007;51.312;12.372;2023-02-28T15:41:26;9.80;60.50
3418;DHT22;68007;51.312;12.372;2023-02-28T15:44:16;9.70;58.30
3418;DHT22;68007;51.312;12.372;2023-02-28T15:46:54;9.70;59.00
3418;DHT22;68007;51.312;12.372;2023-02-28T15:49:22;9.70;60.60
3418;DHT22;68007;51.312;12.372;2023-02-28T15:51:52;9.60;59.30
3418;DHT22;68007;51.312;12.372;2023-02-28T15:54:23;9.60;62.00
3418;DHT22;68007;51.312;12.372;2023-02-28T15:56:56;9.50;61.00
3418;DHT22;68007;51.312;12.372;2023-02-28T15:59:26;9.50;61.40
3418;DHT22;68007;51.312;12.372;2023-02-28T16:02:13;9.50;61.50
3418;DHT22;68007;51.312;12.372;2023-02-28T16:04:57;9.50;61.10
3418;DHT22;68007;51.312;12.372;2023-02-28T16:07:25;9.40;60.40
3418;DHT22;68007;51.312;12.372;2023-02-28T16:09:52;9.40;61.70
3418;DHT22;68007;51.312;12.372;2023-02-28T16:12:25;9.30;62.10
3418;DHT22;68007;51.312;12.372;2023-02-28T16:14:54;9.20;61.40
3418;DHT22;68007;51.312;12.372;2023-02-28T16:17:24;9.20;62.30
3418;DHT22;68007;51.312;12.372;2023-02-28T16:19:52;9.10;62.10
3418;DHT22;68007;51.312;12.372;2023-02-28T16:22:19;9.00;62.10
3418;DHT22;68007;51.312;12.372;2023-02-28T16:24:47;8.90;63.40
3418;DHT22;68007;51.312;12.372;2023-02-28T16:27:18;8.90;63.60